sensor_id;sensor_type;location;lat;lon;timestamp;pressure;altitude;pressure_sealevel;temperature;humidity
15568;BME280;7885;42.596;23.044;2022-11-11T00:00:59;94091.00;;;6.10;90.18
15568;BME280;7885;42.596;23.044;2022-11-11T00:03:26;94092.44;;;6.07;92.09
15568;BME280;7885;42.596;23.044;2022-11-11T00:05:53;94081.50;;;6.04;91.14
15568;BME280;7885;42.596;23.044;2022-11-11T00:08:20;94071.94;;;5.94;92.28
15568;BME280;7885;42.596;23.044;2022-11-11T00:10:48;94085.13;;;6.08;93.55
15568;BME280;7885;42.596;23.044;2022-11-11T00:13:15;94090.09;;;6.06;93.64
15568;BME280;7885;42.596;23.044;2022-11-11T00:15:41;94068.00;;;5.92;93.18
15568;BME280;7885;42.596;23.044;2022-11-11T00:18:10;94079.97;;;6.03;93.45
15568;BME280;7885;42.596;23.044;2022-11-11T00:20:57;94082.78;;;6.06;92.93
15568;BME280;7885;42.596;23.044;2022-11-11T00:23:42;94087.63;;;6.13;91.88
15568;BME280;7885;42.596;23.044;2022-11-11T00:26:27;94110.69;;;6.23;91.71
15568;BME280;7885;42.596;23.044;2022-11-11T00:28:54;94101.38;;;6.20;91.32
15568;BME280;7885;42.596;23.044;2022-11-11T00:31:21;94105.19;;;6.19;93.23
15568;BME280;7885;42.596;23.044;2022-11-11T00:33:48;94099.31;;;6.29;94.35
15568;BME280;7885;42.596;23.044;2022-11-11T00:36:15;94102.47;;;6.31;92.98
15568;BME280;7885;42.596;23.044;2022-11-11T00:38:41;94100.91;;;6.30;91.62
15568;BME280;7885;42.596;23.044;2022-11-11T00:41:16;94097.06;;;6.31;90.79
15568;BME280;7885;42.596;23.044;2022-11-11T00:43:45;94091.00;;;6.34;94.39
15568;BME280;7885;42.596;23.044;2022-11-11T00:46:14;94086.81;;;6.37;98.27
15568;BME280;7885;42.596;23.044;2022-11-11T00:48:58;94090.75;;;6.39;98.41
15568;BME280;7885;42.596;23.044;2022-11-11T00:51:43;94089.63;;;6.40;98.94
15568;BME280;7885;42.596;23.044;2022-11-11T00:54:11;94070.25;;;6.38;96.81
15568;BME280;7885;42.596;23.044;2022-11-11T00:56:38;94089.28;;;6.54;96.12
15568;BME280;7885;42.596;23.044;2022-11-11T00:59:07;94079.03;;;6.47;95.40
15568;BME280;7885;42.596;23.044;2022-11-11T01:01:35;94089.59;;;6.65;100.00
15568;BME280;7885;42.596;23.044;2022-11-11T01:04:03;94016.63;;;6.28;100.00
15568;BME280;7885;42.596;23.044;2022-11-11T01:06:30;94092.25;;;6.89;100.00
15568;BME280;7885;42.596;23.044;2022-11-11T01:08:57;94076.56;;;6.94;100.00
15568;BME280;7885;42.596;23.044;2022-11-11T01:11:24;94086.78;;;7.13;100.00
15568;BME280;7885;42.596;23.044;2022-11-11T01:13:51;94070.66;;;7.04;100.00
15568;BME280;7885;42.596;23.044;2022-11-11T01:16:20;94078.84;;;7.20;100.00
15568;BME280;7885;42.596;23.044;2022-11-11T01:18:49;94094.34;;;7.35;100.00
15568;BME280;7885;42.596;23.044;2022-11-11T01:21:17;94081.47;;;7.44;100.00
15568;BME280;7885;42.596;23.044;2022-11-11T01:23:45;94073.63;;;7.27;100.00
15568;BME280;7885;42.596;23.044;2022-11-11T01:26:15;94094.72;;;7.34;100.00
15568;BME280;7885;42.596;23.044;2022-11-11T01:28:42;94092.78;;;7.34;100.00
15568;BME280;7885;42.596;23.044;2022-11-11T01:31:12;94082.81;;;7.38;100.00
15568;BME280;7885;42.596;23.044;2022-11-11T01:33:41;94073.34;;;7.44;100.00
15568;BME280;7885;42.596;23.044;2022-11-11T01:36:10;94026.81;;;7.27;100.00
15568;BME280;7885;42.596;23.044;2022-11-11T01:38:38;94058.22;;;7.43;100.00
15568;BME280;7885;42.596;23.044;2022-11-11T01:41:08;94076.34;;;7.55;100.00
15568;BME280;7885;42.596;23.044;2022-11-11T01:43:53;94046.91;;;7.41;100.00
15568;BME280;7885;42.596;23.044;2022-11-11T01:46:28;94083.66;;;7.54;100.00
15568;BME280;7885;42.596;23.044;2022-11-11T01:49:03;94076.28;;;7.39;100.00
15568;BME280;7885;42.596;23.044;2022-11-11T01:51:50;94088.78;;;7.44;100.00
15568;BME280;7885;42.596;23.044;2022-11-11T01:54:23;94080.50;;;7.25;97.88
15568;BME280;7885;42.596;23.044;2022-11-11T01:56:55;94079.97;;;7.19;97.93
15568;BME280;7885;42.596;23.044;2022-11-11T01:59:24;94091.72;;;7.11;98.37
15568;BME280;7885;42.596;23.044;2022-11-11T02:01:52;94094.34;;;7.07;98.23
15568;BME280;7885;42.596;23.044;2022-11-11T02:04:21;94094.38;;;6.95;96.61
15568;BME280;7885;42.596;23.044;2022-11-11T02:07:08;94095.88;;;6.93;93.78
15568;BME280;7885;42.596;23.044;2022-11-11T02:09:38;94085.75;;;6.66;93.38
15568;BME280;7885;42.596;23.044;2022-11-11T02:12:08;94097.03;;;6.68;95.06
15568;BME280;7885;42.596;23.044;2022-11-11T02:14:56;94097.47;;;6.70;96.46
15568;BME280;7885;42.596;23.044;2022-11-11T02:17:25;94084.78;;;6.58;96.59
15568;BME280;7885;42.596;23.044;2022-11-11T02:19:56;94101.53;;;6.64;96.53
15568;BME280;7885;42.596;23.044;2022-11-11T02:22:32;94101.53;;;6.64;96.25
15568;BME280;7885;42.596;23.044;2022-11-11T02:25:02;94098.63;;;6.56;94.85
15568;BME280;7885;42.596;23.044;2022-11-11T02:27:30;94075.66;;;6.38;93.91
15568;BME280;7885;42.596;23.044;2022-11-11T02:29:59;94100.66;;;6.35;92.17
15568;BME280;7885;42.596;23.044;2022-11-11T02:32:27;94081.97;;;6.18;92.52
15568;BME280;7885;42.596;23.044;2022-11-11T02:34:54;94093.22;;;6.32;93.82
15568;BME280;7885;42.596;23.044;2022-11-11T02:37:22;94099.78;;;6.19;94.57
15568;BME280;7885;42.596;23.044;2022-11-11T02:39:51;94085.47;;;6.06;94.42
15568;BME280;7885;42.596;23.044;2022-11-11T02:42:22;94086.25;;;6.07;96.23
15568;BME280;7885;42.596;23.044;2022-11-11T02:44:49;94041.63;;;5.77;95.54
15568;BME280;7885;42.596;23.044;2022-11-11T02:47:23;94103.84;;;6.13;95.97
15568;BME280;7885;42.596;23.044;2022-11-11T02:49:50;94098.88;;;6.15;97.37
15568;BME280;7885;42.596;23.044;2022-11-11T02:52:17;94099.75;;;6.07;96.66
15568;BME280;7885;42.596;23.044;2022-11-11T02:54:43;94104.72;;;6.17;96.33
15568;BME280;7885;42.596;23.044;2022-11-11T02:57:10;94109.69;;;6.15;94.74
15568;BME280;7885;42.596;23.044;2022-11-11T02:59:39;94113.72;;;6.21;95.31
15568;BME280;7885;42.596;23.044;2022-11-11T03:02:07;94092.78;;;6.06;96.14
15568;BME280;7885;42.596;23.044;2022-11-11T03:04:33;94102.69;;;6.14;94.51
15568;BME280;7885;42.596;23.044;2022-11-11T03:07:02;94090.31;;;6.25;94.55
15568;BME280;7885;42.596;23.044;2022-11-11T03:09:29;94100.56;;;6.44;94.90
15568;BME280;7885;42.596;23.044;2022-11-11T03:11:56;94097.63;;;6.49;97.03
15568;BME280;7885;42.596;23.044;2022-11-11T03:14:23;94097.72;;;6.52;100.00
15568;BME280;7885;42.596;23.044;2022-11-11T03:16:51;94099.53;;;6.48;100.00
15568;BME280;7885;42.596;23.044;2022-11-11T03:19:32;94025.00;;;5.99;100.00
15568;BME280;7885;42.596;23.044;2022-11-11T03:21:59;94107.19;;;6.58;100.00
15568;BME280;7885;42.596;23.044;2022-11-11T03:24:25;94091.53;;;6.52;100.00
15568;BME280;7885;42.596;23.044;2022-11-11T03:27:13;94107.50;;;6.69;100.00
15568;BME280;7885;42.596;23.044;2022-11-11T03:29:38;94090.50;;;6.69;99.46
15568;BME280;7885;42.596;23.044;2022-11-11T03:32:07;94107.81;;;6.80;97.90
15568;BME280;7885;42.596;23.044;2022-11-11T03:34:34;94109.63;;;6.88;95.99
15568;BME280;7885;42.596;23.044;2022-11-11T03:37:01;94092.97;;;6.74;95.82
15568;BME280;7885;42.596;23.044;2022-11-11T03:39:46;94109.19;;;6.74;96.31
15568;BME280;7885;42.596;23.044;2022-11-11T03:42:12;94060.22;;;6.51;98.53
15568;BME280;7885;42.596;23.044;2022-11-11T03:44:39;94109.28;;;6.89;100.00
15568;BME280;7885;42.596;23.044;2022-11-11T03:47:07;94107.66;;;7.00;100.00
15568;BME280;7885;42.596;23.044;2022-11-11T03:49:34;94121.75;;;7.06;99.89
15568;BME280;7885;42.596;23.044;2022-11-11T03:52:01;94100.09;;;7.06;99.33
15568;BME280;7885;42.596;23.044;2022-11-11T03:54:28;94072.84;;;6.99;98.90
15568;BME280;7885;42.596;23.044;2022-11-11T03:56:54;94065.84;;;6.98;98.20
15568;BME280;7885;42.596;23.044;2022-11-11T03:59:42;94111.81;;;7.38;98.98
15568;BME280;7885;42.596;23.044;2022-11-11T04:02:12;94087.41;;;7.22;98.63
15568;BME280;7885;42.596;23.044;2022-11-11T04:05:08;94105.97;;;7.36;98.77
15568;BME280;7885;42.596;23.044;2022-11-11T04:07:52;94096.81;;;7.40;99.68
15568;BME280;7885;42.596;23.044;2022-11-11T04:10:37;94106.59;;;7.45;99.36
15568;BME280;7885;42.596;23.044;2022-11-11T04:13:04;94082.63;;;7.31;98.44
15568;BME280;7885;42.596;23.044;2022-11-11T04:15:48;94112.81;;;7.45;96.77
15568;BME280;7885;42.596;23.044;2022-11-11T04:18:35;94101.63;;;7.47;96.89
15568;BME280;7885;42.596;23.044;2022-11-11T04:21:20;94110.06;;;7.57;97.24
15568;BME280;7885;42.596;23.044;2022-11-11T04:24:06;94089.78;;;7.51;97.48
15568;BME280;7885;42.596;23.044;2022-11-11T04:26:46;94106.16;;;7.71;99.37
15568;BME280;7885;42.596;23.044;2022-11-11T04:29:13;94099.41;;;7.65;98.70
15568;BME280;7885;42.596;23.044;2022-11-11T04:31:56;94111.13;;;7.69;98.21
15568;BME280;7885;42.596;23.044;2022-11-11T04:34:43;94128.53;;;7.83;98.48
15568;BME280;7885;42.596;23.044;2022-11-11T04:37:10;94108.44;;;7.84;99.14
15568;BME280;7885;42.596;23.044;2022-11-11T04:39:37;94082.66;;;7.75;98.96
15568;BME280;7885;42.596;23.044;2022-11-11T04:42:21;94122.00;;;8.00;98.04
15568;BME280;7885;42.596;23.044;2022-11-11T04:44:48;94129.78;;;8.01;97.43
15568;BME280;7885;42.596;23.044;2022-11-11T04:47:33;94130.13;;;8.00;96.92
15568;BME280;7885;42.596;23.044;2022-11-11T04:50:01;94108.72;;;7.95;96.60
15568;BME280;7885;42.596;23.044;2022-11-11T04:52:28;94119.03;;;8.05;96.38
15568;BME280;7885;42.596;23.044;2022-11-11T04:54:56;94107.78;;;8.03;96.34
15568;BME280;7885;42.596;23.044;2022-11-11T04:57:41;94126.13;;;8.09;96.13
15568;BME280;7885;42.596;23.044;2022-11-11T05:00:11;94106.88;;;7.99;96.53
15568;BME280;7885;42.596;23.044;2022-11-11T05:02:38;94120.72;;;8.09;97.03
15568;BME280;7885;42.596;23.044;2022-11-11T05:05:24;94127.09;;;8.17;98.89
15568;BME280;7885;42.596;23.044;2022-11-11T05:07:51;94106.09;;;8.14;100.00
15568;BME280;7885;42.596;23.044;2022-11-11T05:10:35;94076.53;;;8.09;100.00
15568;BME280;7885;42.596;23.044;2022-11-11T05:13:02;94117.06;;;8.33;97.74
15568;BME280;7885;42.596;23.044;2022-11-11T05:15:47;94127.66;;;8.38;99.93
15568;BME280;7885;42.596;23.044;2022-11-11T05:18:31;94127.09;;;8.48;100.00
15568;BME280;7885;42.596;23.044;2022-11-11T05:21:20;94110.94;;;8.36;99.41
15568;BME280;7885;42.596;23.044;2022-11-11T05:23:48;94134.38;;;8.60;98.89
15568;BME280;7885;42.596;23.044;2022-11-11T05:26:33;94130.16;;;8.62;99.97
15568;BME280;7885;42.596;23.044;2022-11-11T05:29:00;94108.75;;;8.57;100.00
15568;BME280;7885;42.596;23.044;2022-11-11T05:31:27;94135.34;;;8.68;100.00
15568;BME280;7885;42.596;23.044;2022-11-11T05:33:54;94122.19;;;8.70;100.00
15568;BME280;7885;42.596;23.044;2022-11-11T05:36:22;94129.53;;;8.85;100.00
15568;BME280;7885;42.596;23.044;2022-11-11T05:38:49;94142.47;;;8.91;100.00
15568;BME280;7885;42.596;23.044;2022-11-11T05:41:16;94153.66;;;9.05;100.00
15568;BME280;7885;42.596;23.044;2022-11-11T05:43:42;94151.31;;;9.23;100.00
15568;BME280;7885;42.596;23.044;2022-11-11T05:46:09;94157.19;;;9.25;100.00
15568;BME280;7885;42.596;23.044;2022-11-11T05:48:36;94146.75;;;9.27;100.00
15568;BME280;7885;42.596;23.044;2022-11-11T05:51:25;94144.38;;;9.26;100.00
15568;BME280;7885;42.596;23.044;2022-11-11T05:53:56;94149.91;;;9.29;100.00
15568;BME280;7885;42.596;23.044;2022-11-11T05:56:23;94157.47;;;9.39;100.00
15568;BME280;7885;42.596;23.044;2022-11-11T05:58:49;94154.06;;;9.42;100.00
15568;BME280;7885;42.596;23.044;2022-11-11T06:01:17;94142.03;;;9.43;100.00
15568;BME280;7885;42.596;23.044;2022-11-11T06:03:43;94151.34;;;9.61;100.00
15568;BME280;7885;42.596;23.044;2022-11-11T06:06:11;94154.22;;;9.69;100.00
15568;BME280;7885;42.596;23.044;2022-11-11T06:08:39;94141.31;;;9.65;100.00
15568;BME280;7885;42.596;23.044;2022-11-11T06:11:06;94161.28;;;9.73;100.00
15568;BME280;7885;42.596;23.044;2022-11-11T06:13:33;94143.53;;;9.60;100.00
15568;BME280;7885;42.596;23.044;2022-11-11T06:16:00;94116.09;;;9.46;100.00
15568;BME280;7885;42.596;23.044;2022-11-11T06:18:27;94177.09;;;9.68;100.00
15568;BME280;7885;42.596;23.044;2022-11-11T06:20:54;94181.66;;;9.63;99.99
15568;BME280;7885;42.596;23.044;2022-11-11T06:23:21;94171.16;;;9.62;99.16
15568;BME280;7885;42.596;23.044;2022-11-11T06:25:50;94173.78;;;9.58;98.82
15568;BME280;7885;42.596;23.044;2022-11-11T06:28:34;94178.38;;;9.54;98.42
15568;BME280;7885;42.596;23.044;2022-11-11T06:31:01;94184.38;;;9.44;98.68
15568;BME280;7885;42.596;23.044;2022-11-11T06:33:29;94176.34;;;9.32;99.23
15568;BME280;7885;42.596;23.044;2022-11-11T06:35:56;94197.81;;;9.37;98.97
15568;BME280;7885;42.596;23.044;2022-11-11T06:38:23;94199.81;;;9.40;99.17
15568;BME280;7885;42.596;23.044;2022-11-11T06:40:51;94196.03;;;9.45;98.98
15568;BME280;7885;42.596;23.044;2022-11-11T06:43:18;94167.47;;;9.16;98.95
15568;BME280;7885;42.596;23.044;2022-11-11T06:45:45;94218.13;;;9.43;99.47
15568;BME280;7885;42.596;23.044;2022-11-11T06:48:15;94199.66;;;9.33;99.36
15568;BME280;7885;42.596;23.044;2022-11-11T06:50:42;94194.38;;;9.40;99.69
15568;BME280;7885;42.596;23.044;2022-11-11T06:53:10;94178.09;;;9.40;100.00
15568;BME280;7885;42.596;23.044;2022-11-11T06:55:37;94162.50;;;9.37;100.00
15568;BME280;7885;42.596;23.044;2022-11-11T06:58:06;94130.88;;;9.10;100.00
15568;BME280;7885;42.596;23.044;2022-11-11T07:00:33;94212.00;;;9.65;100.00
15568;BME280;7885;42.596;23.044;2022-11-11T07:03:00;94216.38;;;9.70;100.00
15568;BME280;7885;42.596;23.044;2022-11-11T07:05:27;94213.56;;;9.67;100.00
15568;BME280;7885;42.596;23.044;2022-11-11T07:07:54;94197.25;;;9.67;100.00
15568;BME280;7885;42.596;23.044;2022-11-11T07:10:21;94212.28;;;9.80;100.00
15568;BME280;7885;42.596;23.044;2022-11-11T07:12:48;94223.44;;;9.94;99.55
15568;BME280;7885;42.596;23.044;2022-11-11T07:15:17;94226.69;;;9.99;99.31
15568;BME280;7885;42.596;23.044;2022-11-11T07:17:43;94225.25;;;10.05;99.20
15568;BME280;7885;42.596;23.044;2022-11-11T07:20:10;94238.47;;;10.07;99.54
15568;BME280;7885;42.596;23.044;2022-11-11T07:22:37;94222.00;;;10.00;99.73
15568;BME280;7885;42.596;23.044;2022-11-11T07:25:05;94220.66;;;10.09;99.91
15568;BME280;7885;42.596;23.044;2022-11-11T07:27:35;94202.56;;;9.98;100.00
15568;BME280;7885;42.596;23.044;2022-11-11T07:30:03;94223.72;;;10.08;100.00
15568;BME280;7885;42.596;23.044;2022-11-11T07:32:31;94203.41;;;10.02;100.00
15568;BME280;7885;42.596;23.044;2022-11-11T07:34:58;94244.44;;;10.32;100.00
15568;BME280;7885;42.596;23.044;2022-11-11T07:37:25;94247.22;;;10.35;99.98
15568;BME280;7885;42.596;23.044;2022-11-11T07:39:52;94253.25;;;10.44;99.98
15568;BME280;7885;42.596;23.044;2022-11-11T07:42:19;94254.06;;;10.48;100.00
15568;BME280;7885;42.596;23.044;2022-11-11T07:44:46;94221.22;;;10.38;100.00
15568;BME280;7885;42.596;23.044;2022-11-11T07:47:13;94253.84;;;10.57;100.00
15568;BME280;7885;42.596;23.044;2022-11-11T07:49:41;94199.41;;;10.34;100.00
15568;BME280;7885;42.596;23.044;2022-11-11T07:52:07;94240.84;;;10.70;100.00
15568;BME280;7885;42.596;23.044;2022-11-11T07:54:34;94252.59;;;10.96;100.00
15568;BME280;7885;42.596;23.044;2022-11-11T07:57:01;94188.25;;;10.65;99.25
15568;BME280;7885;42.596;23.044;2022-11-11T07:59:28;94253.31;;;11.16;98.75
15568;BME280;7885;42.596;23.044;2022-11-11T08:01:54;94260.75;;;11.19;98.47
15568;BME280;7885;42.596;23.044;2022-11-11T08:04:21;94250.53;;;11.12;98.26
15568;BME280;7885;42.596;23.044;2022-11-11T08:06:49;94267.78;;;11.20;98.24
15568;BME280;7885;42.596;23.044;2022-11-11T08:09:16;94266.22;;;11.19;98.17
15568;BME280;7885;42.596;23.044;2022-11-11T08:11:43;94276.25;;;11.15;98.31
15568;BME280;7885;42.596;23.044;2022-11-11T08:14:27;94263.66;;;11.07;97.71
15568;BME280;7885;42.596;23.044;2022-11-11T08:16:54;94275.00;;;11.09;97.87
15568;BME280;7885;42.596;23.044;2022-11-11T08:19:20;94266.31;;;11.03;97.81
15568;BME280;7885;42.596;23.044;2022-11-11T08:21:47;94272.28;;;11.09;98.25
15568;BME280;7885;42.596;23.044;2022-11-11T08:24:15;94275.00;;;11.09;98.02
15568;BME280;7885;42.596;23.044;2022-11-11T08:26:43;94273.84;;;11.10;98.02
15568;BME280;7885;42.596;23.044;2022-11-11T08:29:09;94284.75;;;11.10;97.91
15568;BME280;7885;42.596;23.044;2022-11-11T08:31:36;94284.03;;;11.13;98.41
15568;BME280;7885;42.596;23.044;2022-11-11T08:34:03;94285.56;;;11.14;98.35
15568;BME280;7885;42.596;23.044;2022-11-11T08:36:30;94280.78;;;11.07;98.15
15568;BME280;7885;42.596;23.044;2022-11-11T08:38:57;94288.31;;;11.14;98.07
15568;BME280;7885;42.596;23.044;2022-11-11T08:41:25;94262.97;;;11.10;98.23
15568;BME280;7885;42.596;23.044;2022-11-11T08:43:53;94277.22;;;11.26;97.78
15568;BME280;7885;42.596;23.044;2022-11-11T08:46:20;94283.09;;;11.28;97.92
15568;BME280;7885;42.596;23.044;2022-11-11T08:48:47;94290.22;;;11.36;97.56
15568;BME280;7885;42.596;23.044;2022-11-11T08:51:14;94281.59;;;11.31;97.09
15568;BME280;7885;42.596;23.044;2022-11-11T08:53:41;94291.13;;;11.44;96.93
15568;BME280;7885;42.596;23.044;2022-11-11T08:56:08;94276.28;;;11.41;96.09
15568;BME280;7885;42.596;23.044;2022-11-11T08:58:37;94253.00;;;11.21;96.27
15568;BME280;7885;42.596;23.044;2022-11-11T09:01:10;94298.31;;;11.55;95.86
15568;BME280;7885;42.596;23.044;2022-11-11T09:03:38;94290.56;;;11.57;95.57
15568;BME280;7885;42.596;23.044;2022-11-11T09:06:07;94293.28;;;11.57;95.42
15568;BME280;7885;42.596;23.044;2022-11-11T09:08:34;94251.63;;;11.34;94.74
15568;BME280;7885;42.596;23.044;2022-11-11T09:11:01;94276.28;;;11.41;94.79
15568;BME280;7885;42.596;23.044;2022-11-11T09:13:28;94270.75;;;11.38;95.25
15568;BME280;7885;42.596;23.044;2022-11-11T09:15:56;94281.06;;;11.48;94.58
15568;BME280;7885;42.596;23.044;2022-11-11T09:18:24;94288.03;;;11.45;94.75
15568;BME280;7885;42.596;23.044;2022-11-11T09:20:51;94283.00;;;11.47;94.87
15568;BME280;7885;42.596;23.044;2022-11-11T09:23:18;94241.25;;;11.17;94.68
15568;BME280;7885;42.596;23.044;2022-11-11T09:25:44;94269.56;;;11.35;94.60
15568;BME280;7885;42.596;23.044;2022-11-11T09:28:11;94290.75;;;11.45;94.49
15568;BME280;7885;42.596;23.044;2022-11-11T09:30:38;94282.28;;;11.50;94.86
15568;BME280;7885;42.596;23.044;2022-11-11T09:33:06;94285.84;;;11.54;94.13
15568;BME280;7885;42.596;23.044;2022-11-11T09:35:34;94246.41;;;11.48;93.33
15568;BME280;7885;42.596;23.044;2022-11-11T09:38:01;94285.66;;;11.93;91.64
15568;BME280;7885;42.596;23.044;2022-11-11T09:40:37;94255.22;;;11.91;89.90
15568;BME280;7885;42.596;23.044;2022-11-11T09:43:16;94262.00;;;12.04;89.02
15568;BME280;7885;42.596;23.044;2022-11-11T09:45:49;94271.13;;;12.15;88.48
15568;BME280;7885;42.596;23.044;2022-11-11T09:48:34;94259.41;;;12.14;88.18
15568;BME280;7885;42.596;23.044;2022-11-11T09:51:04;94269.25;;;12.23;88.07
15568;BME280;7885;42.596;23.044;2022-11-11T09:53:40;94262.84;;;12.08;87.57
15568;BME280;7885;42.596;23.044;2022-11-11T09:56:12;94240.13;;;12.00;87.72
15568;BME280;7885;42.596;23.044;2022-11-11T09:58:42;94255.13;;;12.17;87.84
15568;BME280;7885;42.596;23.044;2022-11-11T10:01:13;94269.44;;;12.37;87.80
15568;BME280;7885;42.596;23.044;2022-11-11T10:03:46;94267.09;;;12.39;86.77
15568;BME280;7885;42.596;23.044;2022-11-11T10:06:17;94254.03;;;12.22;86.83
15568;BME280;7885;42.596;23.044;2022-11-11T10:08:50;94262.25;;;12.25;87.49
15568;BME280;7885;42.596;23.044;2022-11-11T10:11:21;94259.78;;;12.13;87.89
15568;BME280;7885;42.596;23.044;2022-11-11T10:13:52;94248.78;;;12.06;87.80
15568;BME280;7885;42.596;23.044;2022-11-11T10:16:26;94264.47;;;12.12;87.41
15568;BME280;7885;42.596;23.044;2022-11-11T10:19:26;94262.84;;;12.08;86.51
15568;BME280;7885;42.596;23.044;2022-11-11T10:21:57;94231.41;;;11.88;86.62
15568;BME280;7885;42.596;23.044;2022-11-11T10:24:28;94245.53;;;11.97;86.26
15568;BME280;7885;42.596;23.044;2022-11-11T10:26:58;94155.28;;;11.49;85.46
15568;BME280;7885;42.596;23.044;2022-11-11T10:29:30;94261.03;;;12.19;84.62
15568;BME280;7885;42.596;23.044;2022-11-11T10:32:04;94255.19;;;12.21;84.28
15568;BME280;7885;42.596;23.044;2022-11-11T10:34:36;94258.69;;;12.21;84.52
15568;BME280;7885;42.596;23.044;2022-11-11T10:37:14;94193.53;;;11.83;84.49
15568;BME280;7885;42.596;23.044;2022-11-11T10:39:53;94240.72;;;12.17;84.43
15568;BME280;7885;42.596;23.044;2022-11-11T10:42:22;94256.72;;;12.18;84.11
15568;BME280;7885;42.596;23.044;2022-11-11T10:44:50;94227.28;;;12.01;83.60
15568;BME280;7885;42.596;23.044;2022-11-11T10:47:33;94247.25;;;12.08;83.56
15568;BME280;7885;42.596;23.044;2022-11-11T10:50:10;94217.91;;;11.98;83.32
15568;BME280;7885;42.596;23.044;2022-11-11T10:52:42;94240.91;;;12.31;82.68
15568;BME280;7885;42.596;23.044;2022-11-11T10:55:14;94251.16;;;12.41;82.13
15568;BME280;7885;42.596;23.044;2022-11-11T10:57:48;94207.69;;;12.25;79.50
15568;BME280;7885;42.596;23.044;2022-11-11T11:00:17;94226.13;;;12.35;79.69
15568;BME280;7885;42.596;23.044;2022-11-11T11:02:50;94225.00;;;12.40;79.76
15568;BME280;7885;42.596;23.044;2022-11-11T11:05:25;94235.63;;;12.48;79.24
15568;BME280;7885;42.596;23.044;2022-11-11T11:07:56;94246.66;;;12.59;79.18
15568;BME280;7885;42.596;23.044;2022-11-11T11:10:29;94232.59;;;12.57;78.93
15568;BME280;7885;42.596;23.044;2022-11-11T11:13:02;94227.66;;;12.70;78.82
15568;BME280;7885;42.596;23.044;2022-11-11T11:15:34;94222.25;;;12.77;77.75
15568;BME280;7885;42.596;23.044;2022-11-11T11:18:05;94227.91;;;12.98;76.79
15568;BME280;7885;42.596;23.044;2022-11-11T11:20:35;94223.34;;;13.09;75.68
15568;BME280;7885;42.596;23.044;2022-11-11T11:23:02;94202.69;;;13.11;75.28
15568;BME280;7885;42.596;23.044;2022-11-11T11:25:30;94213.88;;;12.99;75.00
15568;BME280;7885;42.596;23.044;2022-11-11T11:28:07;94223.81;;;13.18;74.60
15568;BME280;7885;42.596;23.044;2022-11-11T11:30:34;94226.00;;;13.49;74.41
15568;BME280;7885;42.596;23.044;2022-11-11T11:33:02;94217.56;;;13.72;73.04
15568;BME280;7885;42.596;23.044;2022-11-11T11:35:36;94212.53;;;13.85;71.92
15568;BME280;7885;42.596;23.044;2022-11-11T11:38:04;94175.38;;;13.84;71.26
15568;BME280;7885;42.596;23.044;2022-11-11T11:40:50;94199.78;;;14.24;69.96
15568;BME280;7885;42.596;23.044;2022-11-11T11:43:25;94210.00;;;14.27;69.60
15568;BME280;7885;42.596;23.044;2022-11-11T11:45:54;94202.25;;;14.43;68.16
15568;BME280;7885;42.596;23.044;2022-11-11T11:48:34;94190.53;;;14.53;67.06
15568;BME280;7885;42.596;23.044;2022-11-11T11:51:10;94188.56;;;14.57;67.26
15568;BME280;7885;42.596;23.044;2022-11-11T11:53:53;94187.00;;;14.56;67.48
15568;BME280;7885;42.596;23.044;2022-11-11T11:56:34;94191.31;;;14.50;66.76
15568;BME280;7885;42.596;23.044;2022-11-11T11:59:08;94190.13;;;14.48;66.27
15568;BME280;7885;42.596;23.044;2022-11-11T12:01:46;94191.22;;;14.33;66.80
15568;BME280;7885;42.596;23.044;2022-11-11T12:04:40;94188.84;;;14.28;66.70
15568;BME280;7885;42.596;23.044;2022-11-11T12:07:19;94110.06;;;13.72;66.65
15568;BME280;7885;42.596;23.044;2022-11-11T12:10:07;94182.19;;;14.25;66.78
15568;BME280;7885;42.596;23.044;2022-11-11T12:12:43;94200.97;;;14.23;66.89
15568;BME280;7885;42.596;23.044;2022-11-11T12:15:22;94185.31;;;14.16;67.53
15568;BME280;7885;42.596;23.044;2022-11-11T12:17:59;94182.16;;;14.18;67.03
15568;BME280;7885;42.596;23.044;2022-11-11T12:20:39;94171.63;;;14.16;66.96
15568;BME280;7885;42.596;23.044;2022-11-11T12:23:28;94184.09;;;14.10;66.47
15568;BME280;7885;42.596;23.044;2022-11-11T12:26:17;94173.84;;;13.90;66.00
15568;BME280;7885;42.596;23.044;2022-11-11T12:29:13;94180.00;;;13.69;67.03
15568;BME280;7885;42.596;23.044;2022-11-11T12:31:53;94126.66;;;13.31;67.56
15568;BME280;7885;42.596;23.044;2022-11-11T12:34:34;94163.94;;;13.60;67.40
15568;BME280;7885;42.596;23.044;2022-11-11T12:37:08;94110.28;;;13.38;67.21
15568;BME280;7885;42.596;23.044;2022-11-11T12:39:51;94141.63;;;13.51;67.13
15568;BME280;7885;42.596;23.044;2022-11-11T12:42:32;94127.50;;;13.46;67.72
15568;BME280;7885;42.596;23.044;2022-11-11T12:45:12;94161.28;;;13.75;67.38
15568;BME280;7885;42.596;23.044;2022-11-11T12:47:47;94091.47;;;13.23;67.08
15568;BME280;7885;42.596;23.044;2022-11-11T12:50:22;94163.97;;;13.68;67.61
15568;BME280;7885;42.596;23.044;2022-11-11T12:53:03;94144.81;;;13.64;67.34
15568;BME280;7885;42.596;23.044;2022-11-11T12:55:41;94166.75;;;13.75;67.02
15568;BME280;7885;42.596;23.044;2022-11-11T12:58:20;94165.16;;;13.70;67.57
15568;BME280;7885;42.596;23.044;2022-11-11T13:01:03;94129.09;;;13.47;67.50
15568;BME280;7885;42.596;23.044;2022-11-11T13:03:50;94119.59;;;13.27;67.65
15568;BME280;7885;42.596;23.044;2022-11-11T13:06:32;94165.88;;;13.56;68.22
15568;BME280;7885;42.596;23.044;2022-11-11T13:09:14;94148.22;;;13.43;68.23
15568;BME280;7885;42.596;23.044;2022-11-11T13:11:53;94150.06;;;13.25;68.02
15568;BME280;7885;42.596;23.044;2022-11-11T13:14:33;94164.16;;;13.34;68.64
15568;BME280;7885;42.596;23.044;2022-11-11T13:17:05;94167.31;;;13.36;68.30
15568;BME280;7885;42.596;23.044;2022-11-11T13:19:39;94139.03;;;13.11;68.17
15568;BME280;7885;42.596;23.044;2022-11-11T13:22:14;94164.16;;;13.34;68.16
15568;BME280;7885;42.596;23.044;2022-11-11T13:24:46;94164.16;;;13.34;67.49
15568;BME280;7885;42.596;23.044;2022-11-11T13:27:18;94159.91;;;13.40;67.76